createdAt,value
2018-09-29T00:00:41.497Z,11.86
2018-09-29T00:03:09.786Z,11.80
2018-09-29T00:05:38.209Z,11.74
2018-09-29T00:08:06.731Z,11.79
2018-09-29T00:10:35.423Z,11.77
2018-09-29T00:13:03.633Z,11.72
2018-09-29T00:15:31.811Z,11.71
2018-09-29T00:17:59.989Z,11.73
2018-09-29T00:20:28.145Z,11.75
2018-09-29T00:22:56.302Z,11.76
2018-09-29T00:25:24.515Z,11.76
2018-09-29T00:27:52.840Z,11.88
2018-09-29T00:30:21.062Z,11.74
2018-09-29T00:32:49.242Z,11.70
2018-09-29T00:35:17.518Z,11.68
2018-09-29T00:37:45.686Z,11.79
2018-09-29T00:40:13.916Z,11.72
2018-09-29T00:42:42.126Z,11.64
2018-09-29T00:45:10.301Z,11.53
2018-09-29T00:47:38.477Z,11.67
2018-09-29T00:50:06.658Z,11.63
2018-09-29T00:52:34.825Z,11.55
2018-09-29T00:55:03.022Z,11.53
2018-09-29T00:57:31.433Z,11.50
2018-09-29T00:59:59.605Z,11.56
2018-09-29T01:02:27.785Z,11.61
2018-09-29T01:04:55.997Z,11.60
2018-09-29T01:07:24.152Z,11.34
2018-09-29T01:09:52.329Z,11.37
2018-09-29T01:12:20.753Z,11.27
2018-09-29T01:14:49.001Z,11.17
2018-09-29T01:17:17.433Z,11.08
2018-09-29T01:19:45.809Z,10.91
2018-09-29T01:22:14.033Z,10.93
2018-09-29T01:24:42.210Z,10.93
2018-09-29T01:27:10.381Z,10.82
2018-09-29T01:29:38.579Z,10.70
2018-09-29T01:32:06.848Z,10.70
2018-09-29T01:34:35.112Z,10.59
2018-09-29T01:37:03.280Z,10.61
2018-09-29T01:39:31.465Z,10.44
2018-09-29T01:41:59.630Z,10.43
2018-09-29T01:44:27.788Z,10.42
2018-09-29T01:46:55.950Z,10.26
2018-09-29T01:49:24.468Z,10.26
2018-09-29T01:51:52.656Z,10.26
2018-09-29T01:54:20.834Z,10.15
2018-09-29T01:56:49.095Z,10.08
2018-09-29T01:59:17.255Z,10.09
2018-09-29T02:01:45.753Z,10.00
2018-09-29T02:04:14.017Z,9.85
2018-09-29T02:06:42.213Z,9.75
2018-09-29T02:09:10.493Z,9.65
2018-09-29T02:11:38.657Z,9.63
2018-09-29T02:14:06.816Z,9.54
2018-09-29T02:16:35.340Z,9.50
2018-09-29T02:19:03.604Z,9.46
2018-09-29T02:21:31.772Z,9.35
2018-09-29T02:24:00.273Z,9.35
2018-09-29T02:26:28.437Z,9.34
2018-09-29T02:28:56.709Z,9.29
2018-09-29T02:31:24.834Z,9.29
2018-09-29T02:33:53.020Z,9.21
2018-09-29T02:36:21.200Z,9.19
2018-09-29T02:38:49.392Z,9.14
2018-09-29T02:41:17.652Z,9.14
2018-09-29T02:43:45.810Z,9.08
2018-09-29T02:46:14.014Z,9.02
2018-09-29T02:48:42.172Z,8.91
2018-09-29T02:51:10.338Z,9.02
2018-09-29T02:53:38.538Z,8.93
2018-09-29T02:56:06.742Z,8.90
2018-09-29T02:58:34.902Z,8.86
2018-09-29T03:01:03.305Z,8.88
2018-09-29T03:03:31.460Z,8.84
2018-09-29T03:05:59.619Z,8.87
2018-09-29T03:08:27.817Z,8.87
2018-09-29T03:10:56.069Z,8.86
2018-09-29T03:13:24.333Z,8.91
2018-09-29T03:15:52.493Z,8.99
2018-09-29T03:18:20.645Z,9.03
2018-09-29T03:20:48.805Z,9.17
2018-09-29T03:23:17.018Z,9.14
2018-09-29T03:25:45.141Z,9.09
2018-09-29T03:28:13.601Z,9.10
2018-09-29T03:30:41.777Z,9.10
2018-09-29T03:33:09.953Z,9.10
2018-09-29T03:35:38.196Z,9.11
2018-09-29T03:38:06.683Z,9.12
2018-09-29T03:40:34.857Z,9.15
2018-09-29T03:43:03.092Z,9.24
2018-09-29T03:45:31.637Z,9.27
2018-09-29T03:47:59.896Z,9.24
2018-09-29T03:50:31.012Z,9.27
2018-09-29T03:52:59.188Z,9.35
2018-09-29T03:55:27.349Z,9.38
2018-09-29T03:57:55.500Z,9.52
2018-09-29T04:00:23.683Z,9.63
2018-09-29T04:02:51.958Z,9.64
2018-09-29T04:05:20.174Z,9.73
2018-09-29T04:07:48.341Z,9.72
2018-09-29T04:10:16.493Z,9.74
2018-09-29T04:12:44.697Z,9.84
2018-09-29T04:15:12.875Z,9.85
2018-09-29T04:17:41.021Z,9.87
2018-09-29T04:20:09.509Z,9.88
2018-09-29T04:22:37.685Z,9.89
2018-09-29T04:25:06.002Z,9.87
2018-09-29T04:27:34.171Z,9.91
2018-09-29T04:30:02.333Z,9.89
2018-09-29T04:32:30.502Z,9.76
2018-09-29T04:34:58.741Z,9.74
2018-09-29T04:37:26.900Z,9.76
2018-09-29T04:39:55.068Z,9.72
2018-09-29T04:42:23.301Z,9.72
2018-09-29T04:44:51.480Z,9.67
2018-09-29T04:47:19.742Z,9.55
2018-09-29T04:49:47.919Z,9.60
2018-09-29T04:52:16.112Z,9.46
2018-09-29T04:54:44.367Z,9.40
2018-09-29T04:57:12.544Z,9.47
2018-09-29T04:59:40.754Z,9.51
2018-09-29T05:02:08.911Z,9.34
2018-09-29T05:04:37.176Z,9.30
2018-09-29T05:07:05.516Z,9.27
2018-09-29T05:09:33.702Z,9.19
2018-09-29T05:12:01.880Z,9.12
2018-09-29T05:14:30.099Z,9.08
2018-09-29T05:16:58.258Z,9.04
2018-09-29T05:19:26.529Z,9.04
2018-09-29T05:21:54.717Z,8.99
2018-09-29T05:24:22.893Z,8.98
2018-09-29T05:26:51.102Z,8.97
2018-09-29T05:29:19.277Z,9.00
2018-09-29T05:31:47.497Z,9.09
2018-09-29T05:34:15.653Z,8.94
2018-09-29T05:36:43.821Z,8.90
2018-09-29T05:39:12.057Z,8.83
2018-09-29T05:41:40.349Z,8.78
2018-09-29T05:44:08.585Z,8.80
2018-09-29T05:46:36.746Z,8.82
2018-09-29T05:49:05.146Z,8.78
2018-09-29T05:51:33.473Z,8.90
2018-09-29T05:54:01.733Z,8.83
2018-09-29T05:56:29.853Z,8.80
2018-09-29T05:58:58.078Z,8.88
2018-09-29T06:01:26.296Z,8.99
2018-09-29T06:03:54.476Z,9.16
2018-09-29T06:06:22.751Z,9.20
2018-09-29T06:08:50.928Z,9.36
2018-09-29T06:11:19.124Z,9.43
2018-09-29T06:13:47.284Z,9.35
2018-09-29T06:16:15.451Z,9.34
2018-09-29T06:18:43.626Z,9.27
2018-09-29T06:21:11.797Z,9.38
2018-09-29T06:23:39.994Z,9.46
2018-09-29T06:26:08.244Z,9.64
2018-09-29T06:28:36.436Z,9.75
2018-09-29T06:31:04.590Z,9.92
2018-09-29T06:33:32.774Z,10.12
2018-09-29T06:36:01.019Z,10.26
2018-09-29T06:38:29.174Z,10.32
2018-09-29T06:40:57.426Z,10.25
2018-09-29T06:43:25.533Z,10.15
2018-09-29T06:45:53.686Z,10.14
2018-09-29T06:48:22.966Z,10.26
2018-09-29T06:50:51.237Z,10.18
2018-09-29T06:53:19.495Z,10.32
2018-09-29T06:55:47.681Z,10.46
2018-09-29T06:58:15.862Z,10.52
2018-09-29T07:00:44.333Z,10.70
2018-09-29T07:03:12.661Z,10.79
2018-09-29T07:05:40.841Z,10.97
2018-09-29T07:08:09.012Z,11.16
2018-09-29T07:10:37.221Z,11.20
2018-09-29T07:13:06.142Z,11.15
2018-09-29T07:15:34.371Z,11.27
2018-09-29T07:18:02.592Z,11.33
2018-09-29T07:20:31.196Z,11.64
2018-09-29T07:22:59.364Z,11.71
2018-09-29T07:25:27.602Z,11.81
2018-09-29T07:27:55.780Z,11.83
2018-09-29T07:30:23.971Z,11.88
2018-09-29T07:32:52.266Z,11.88
2018-09-29T07:35:20.458Z,12.10
2018-09-29T07:37:48.638Z,12.40
2018-09-29T07:40:16.811Z,12.60
2018-09-29T07:42:45.034Z,12.46
2018-09-29T07:45:13.229Z,12.27
2018-09-29T07:47:41.390Z,12.21
2018-09-29T07:50:09.672Z,12.51
2018-09-29T07:52:37.933Z,12.60
2018-09-29T07:55:06.110Z,12.82
2018-09-29T07:57:34.293Z,13.06
2018-09-29T08:00:02.856Z,13.19
2018-09-29T08:02:31.019Z,13.36
2018-09-29T08:04:59.505Z,13.56
2018-09-29T08:07:27.660Z,13.46
2018-09-29T08:09:55.826Z,13.45
2018-09-29T08:12:24.097Z,13.58
2018-09-29T08:14:52.144Z,13.75
2018-09-29T08:17:20.394Z,13.89
2018-09-29T08:19:48.814Z,13.91
2018-09-29T08:22:16.971Z,13.77
2018-09-29T08:24:45.226Z,13.82
2018-09-29T08:27:13.414Z,13.96
2018-09-29T08:29:41.663Z,13.95
2018-09-29T08:32:09.825Z,13.77
2018-09-29T08:34:38.017Z,13.80
2018-09-29T08:37:06.352Z,13.61
2018-09-29T08:39:34.499Z,13.91
2018-09-29T08:42:02.777Z,14.04
2018-09-29T08:44:31.032Z,14.06
2018-09-29T08:46:59.511Z,14.32
2018-09-29T08:49:27.741Z,14.19
2018-09-29T08:51:55.905Z,13.76
2018-09-29T08:54:24.065Z,13.65
2018-09-29T08:56:52.253Z,14.06
2018-09-29T08:59:20.445Z,14.44
2018-09-29T09:01:48.640Z,14.70
2018-09-29T09:04:16.841Z,14.94
2018-09-29T09:06:45.004Z,14.80
2018-09-29T09:09:13.183Z,15.00
2018-09-29T09:11:41.351Z,14.89
2018-09-29T09:14:09.741Z,14.80
2018-09-29T09:16:37.905Z,14.87
2018-09-29T09:19:06.185Z,14.83
2018-09-29T09:21:34.370Z,15.09
2018-09-29T09:24:02.613Z,15.56
2018-09-29T09:26:30.810Z,15.41
2018-09-29T09:28:58.986Z,14.91
2018-09-29T09:31:27.171Z,15.12
2018-09-29T09:33:55.383Z,15.38
2018-09-29T09:36:23.592Z,15.77
2018-09-29T09:38:51.807Z,15.99
2018-09-29T09:41:20.101Z,16.13
2018-09-29T09:43:48.318Z,15.92
2018-09-29T09:46:16.588Z,15.84
2018-09-29T09:48:45.009Z,15.83
2018-09-29T09:51:13.257Z,16.01
2018-09-29T09:53:41.409Z,15.60
2018-09-29T09:56:09.638Z,15.97
2018-09-29T09:58:38.341Z,16.34
2018-09-29T10:01:11.749Z,16.58
2018-09-29T10:03:39.913Z,16.78
2018-09-29T10:06:08.089Z,16.97
2018-09-29T10:08:36.271Z,17.11
2018-09-29T10:11:04.485Z,17.48
2018-09-29T10:13:32.643Z,17.22
2018-09-29T10:16:00.829Z,16.98
2018-09-29T10:18:28.988Z,17.61
2018-09-29T10:20:57.153Z,18.19
2018-09-29T10:23:25.925Z,18.53
2018-09-29T10:25:54.240Z,18.36
2018-09-29T10:28:22.484Z,19.58
2018-09-29T10:30:50.920Z,20.98
2018-09-29T10:33:19.102Z,22.72
2018-09-29T10:35:47.284Z,25.40
2018-09-29T10:38:15.449Z,27.68
2018-09-29T10:40:43.677Z,29.07
2018-09-29T10:43:11.874Z,31.70
2018-09-29T10:45:40.117Z,31.65
2018-09-29T10:48:08.548Z,33.14
2018-09-29T10:50:36.723Z,32.68
2018-09-29T10:53:05.396Z,32.00
2018-09-29T10:55:33.575Z,33.23
2018-09-29T10:58:01.829Z,33.54
2018-09-29T11:00:30.093Z,33.51
2018-09-29T11:02:58.275Z,34.81
2018-09-29T11:05:26.479Z,34.89
2018-09-29T11:07:54.844Z,36.06
2018-09-29T11:10:23.011Z,36.01
2018-09-29T11:12:51.177Z,36.73
2018-09-29T11:15:19.365Z,36.48
2018-09-29T11:17:47.532Z,37.55
2018-09-29T11:20:15.716Z,38.33
2018-09-29T11:22:43.896Z,38.07
2018-09-29T11:25:12.489Z,36.78
2018-09-29T11:27:40.715Z,36.41
2018-09-29T11:30:08.912Z,36.87
2018-09-29T11:32:37.080Z,38.67
2018-09-29T11:35:05.248Z,38.47
2018-09-29T11:37:33.457Z,38.73
2018-09-29T11:40:01.622Z,39.02
2018-09-29T11:42:29.892Z,39.08
2018-09-29T11:44:58.094Z,40.25
2018-09-29T11:47:29.183Z,40.74
2018-09-29T11:49:57.384Z,36.91
2018-09-29T11:52:25.565Z,34.83
2018-09-29T11:54:53.745Z,34.61
2018-09-29T11:57:21.909Z,36.50
2018-09-29T11:59:50.093Z,37.97
2018-09-29T12:02:18.332Z,38.98
2018-09-29T12:04:46.557Z,40.44
2018-09-29T12:07:14.760Z,38.44
2018-09-29T12:09:42.935Z,39.79
2018-09-29T12:12:11.116Z,37.74
2018-09-29T12:14:39.326Z,38.96
2018-09-29T12:17:07.836Z,39.16
2018-09-29T12:19:36.337Z,40.06
2018-09-29T12:22:04.508Z,39.65
2018-09-29T12:24:32.746Z,39.26
2018-09-29T12:27:01.179Z,41.87
2018-09-29T12:29:29.481Z,41.79
2018-09-29T12:31:57.660Z,41.19
2018-09-29T12:34:26.014Z,39.93
2018-09-29T12:36:54.218Z,39.34
2018-09-29T12:39:22.357Z,41.07
2018-09-29T12:41:50.570Z,41.41
2018-09-29T12:44:18.836Z,42.15
2018-09-29T12:46:46.917Z,39.18
2018-09-29T12:49:15.097Z,39.77
2018-09-29T12:51:43.288Z,38.41
2018-09-29T12:54:11.535Z,38.54
2018-09-29T12:56:39.737Z,39.15
2018-09-29T12:59:07.909Z,41.16
2018-09-29T13:01:36.109Z,42.24
2018-09-29T13:04:04.294Z,40.39
2018-09-29T13:06:32.515Z,35.49
2018-09-29T13:09:00.717Z,39.10
2018-09-29T13:11:28.965Z,40.20
2018-09-29T13:13:57.120Z,42.18
2018-09-29T13:16:25.265Z,42.25
2018-09-29T13:18:53.497Z,42.26
2018-09-29T13:21:21.678Z,40.91
2018-09-29T13:23:49.867Z,41.75
2018-09-29T13:26:18.041Z,41.02
2018-09-29T13:28:46.280Z,42.09
2018-09-29T13:31:14.461Z,43.07
2018-09-29T13:33:42.633Z,43.58
2018-09-29T13:36:14.954Z,45.49
2018-09-29T13:38:43.132Z,45.74
2018-09-29T13:41:11.289Z,45.21
2018-09-29T13:43:39.486Z,44.46
2018-09-29T13:46:07.670Z,44.49
2018-09-29T13:48:36.908Z,43.78
2018-09-29T13:51:05.082Z,43.99
2018-09-29T13:53:33.641Z,43.41
2018-09-29T13:56:02.093Z,44.34
2018-09-29T13:58:30.269Z,44.50
2018-09-29T14:00:58.573Z,45.25
2018-09-29T14:03:27.097Z,44.57
2018-09-29T14:05:55.349Z,44.20
2018-09-29T14:08:23.572Z,44.50
2018-09-29T14:10:51.725Z,43.98
2018-09-29T14:13:19.972Z,45.08
2018-09-29T14:15:48.272Z,44.32
2018-09-29T14:18:16.517Z,44.53
2018-09-29T14:20:44.652Z,44.61
2018-09-29T14:23:13.024Z,42.54
2018-09-29T14:25:41.292Z,42.78
2018-09-29T14:28:09.458Z,42.32
2018-09-29T14:30:37.634Z,43.26
2018-09-29T14:33:06.177Z,43.31
2018-09-29T14:35:34.330Z,42.43
2018-09-29T14:38:03.169Z,41.43
2018-09-29T14:40:31.377Z,33.88
2018-09-29T14:42:59.529Z,31.45
2018-09-29T14:45:27.784Z,29.71
2018-09-29T14:47:55.958Z,28.23
2018-09-29T14:50:24.220Z,26.49
2018-09-29T14:52:52.642Z,24.82
2018-09-29T14:55:20.808Z,23.61
2018-09-29T14:57:49.056Z,22.63
2018-09-29T15:00:17.236Z,21.93
2018-09-29T15:02:45.438Z,21.56
2018-09-29T15:05:13.610Z,20.75
2018-09-29T15:07:41.855Z,20.32
2018-09-29T15:10:10.186Z,20.10
2018-09-29T15:12:38.396Z,19.75
2018-09-29T15:15:07.349Z,19.44
2018-09-29T15:17:35.662Z,19.60
2018-09-29T15:20:03.877Z,19.89
2018-09-29T15:22:32.671Z,19.86
2018-09-29T15:25:00.846Z,19.44
2018-09-29T15:27:29.211Z,19.09
2018-09-29T15:29:57.469Z,18.97
2018-09-29T15:32:25.692Z,18.89
2018-09-29T15:34:53.905Z,18.56
2018-09-29T15:37:22.138Z,18.20
2018-09-29T15:39:50.306Z,17.81
2018-09-29T15:42:18.502Z,17.54
2018-09-29T15:44:46.659Z,17.39
2018-09-29T15:47:14.812Z,17.26
2018-09-29T15:49:43.052Z,17.19
2018-09-29T15:52:11.364Z,17.01
2018-09-29T15:54:39.706Z,17.58
2018-09-29T15:57:08.620Z,18.59
2018-09-29T15:59:36.810Z,19.03
2018-09-29T16:02:04.998Z,18.51
2018-09-29T16:04:33.222Z,17.98
2018-09-29T16:07:01.508Z,17.65
2018-09-29T16:09:29.668Z,18.31
2018-09-29T16:11:57.839Z,17.74
2018-09-29T16:14:26.033Z,17.25
2018-09-29T16:16:54.313Z,16.79
2018-09-29T16:19:22.768Z,16.66
2018-09-29T16:21:51.347Z,16.15
2018-09-29T16:24:19.521Z,15.66
2018-09-29T16:26:47.673Z,15.34
2018-09-29T16:29:16.201Z,15.07
2018-09-29T16:31:44.459Z,14.77
2018-09-29T16:34:13.009Z,14.55
2018-09-29T16:36:41.179Z,14.26
2018-09-29T16:39:11.569Z,14.06
2018-09-29T16:41:39.713Z,13.87
2018-09-29T16:44:07.911Z,13.67
2018-09-29T16:46:36.066Z,13.49
2018-09-29T16:49:04.341Z,13.30
2018-09-29T16:51:33.081Z,13.09
2018-09-29T16:54:01.305Z,12.86
2018-09-29T16:56:29.509Z,12.76
2018-09-29T16:58:57.783Z,12.64
2018-09-29T17:01:26.121Z,12.51
2018-09-29T17:03:54.320Z,12.41
2018-09-29T17:06:22.489Z,12.32
2018-09-29T17:08:50.661Z,12.24
2018-09-29T17:11:18.816Z,12.06
2018-09-29T17:13:47.037Z,11.93
2018-09-29T17:16:15.279Z,11.81
2018-09-29T17:18:43.749Z,11.69
2018-09-29T17:21:11.946Z,11.53
2018-09-29T17:23:40.107Z,11.42
2018-09-29T17:26:08.446Z,11.40
2018-09-29T17:28:36.638Z,11.29
2018-09-29T17:31:04.930Z,11.16
2018-09-29T17:33:33.214Z,11.07
2018-09-29T17:36:01.399Z,11.02
2018-09-29T17:38:29.558Z,10.87
2018-09-29T17:40:57.730Z,10.83
2018-09-29T17:43:25.933Z,10.74
2018-09-29T17:45:54.100Z,10.70
2018-09-29T17:48:23.396Z,10.60
2018-09-29T17:50:51.775Z,10.52
2018-09-29T17:53:20.030Z,10.44
2018-09-29T17:55:48.205Z,10.42
2018-09-29T17:58:16.397Z,10.32
2018-09-29T18:00:44.657Z,10.24
2018-09-29T18:03:12.826Z,10.22
2018-09-29T18:05:41.072Z,10.16
2018-09-29T18:08:09.246Z,10.12
2018-09-29T18:10:37.482Z,10.04
2018-09-29T18:13:05.801Z,10.02
2018-09-29T18:15:33.958Z,10.05
2018-09-29T18:18:02.182Z,9.97
2018-09-29T18:20:30.366Z,9.90
2018-09-29T18:22:58.619Z,9.85
2018-09-29T18:25:26.825Z,9.88
2018-09-29T18:27:55.035Z,9.87
2018-09-29T18:30:23.250Z,9.93
2018-09-29T18:32:51.414Z,9.91
2018-09-29T18:35:19.718Z,9.82
2018-09-29T18:37:47.968Z,9.71
2018-09-29T18:40:16.140Z,9.55
2018-09-29T18:42:44.491Z,9.50
2018-09-29T18:45:12.678Z,9.40
2018-09-29T18:47:40.961Z,9.28
2018-09-29T18:50:09.209Z,9.24
2018-09-29T18:52:37.434Z,9.17
2018-09-29T18:55:05.677Z,9.01
2018-09-29T18:57:33.948Z,8.97
2018-09-29T19:00:02.164Z,8.82
2018-09-29T19:02:30.377Z,8.75
2018-09-29T19:04:58.567Z,8.65
2018-09-29T19:07:26.745Z,8.57
2018-09-29T19:09:55.056Z,8.51
2018-09-29T19:12:23.556Z,8.47
2018-09-29T19:14:51.742Z,8.37
2018-09-29T19:17:19.905Z,8.28
2018-09-29T19:19:48.116Z,8.22
2018-09-29T19:22:16.293Z,8.12
2018-09-29T19:24:44.480Z,8.09
2018-09-29T19:27:12.700Z,8.05
2018-09-29T19:29:41.120Z,7.97
2018-09-29T19:32:09.316Z,7.98
2018-09-29T19:34:37.555Z,7.98
2018-09-29T19:37:05.726Z,7.89
2018-09-29T19:39:33.987Z,7.90
2018-09-29T19:42:08.475Z,7.93
2018-09-29T19:44:36.650Z,7.87
2018-09-29T19:47:04.814Z,7.77
2018-09-29T19:49:33.019Z,7.70
2018-09-29T19:52:01.297Z,7.72
2018-09-29T19:54:29.573Z,7.60
2018-09-29T19:56:57.857Z,7.54
2018-09-29T19:59:26.076Z,7.49
2018-09-29T20:01:54.287Z,7.41
2018-09-29T20:04:22.481Z,7.34
2018-09-29T20:06:50.662Z,7.29
2018-09-29T20:09:18.865Z,7.23
2018-09-29T20:11:47.212Z,7.16
2018-09-29T20:14:15.489Z,7.14
2018-09-29T20:16:43.845Z,7.12
2018-09-29T20:19:11.921Z,7.10
2018-09-29T20:21:40.085Z,7.02
2018-09-29T20:24:08.249Z,6.99
2018-09-29T20:26:36.766Z,6.96
2018-09-29T20:29:04.936Z,7.05
2018-09-29T20:31:33.217Z,7.07
2018-09-29T20:34:01.402Z,7.04
2018-09-29T20:36:29.642Z,7.01
2018-09-29T20:38:57.811Z,6.85
2018-09-29T20:41:26.160Z,6.78
2018-09-29T20:43:54.336Z,6.71
2018-09-29T20:46:22.505Z,6.67
2018-09-29T20:48:50.750Z,6.80
2018-09-29T20:51:19.199Z,6.74
2018-09-29T20:53:47.381Z,6.63
2018-09-29T20:56:16.116Z,6.55
2018-09-29T20:58:44.353Z,6.61
2018-09-29T21:01:12.631Z,6.63
2018-09-29T21:03:41.029Z,6.58
2018-09-29T21:06:10.182Z,6.45
2018-09-29T21:08:38.449Z,6.33
2018-09-29T21:11:06.646Z,6.24
2018-09-29T21:13:35.023Z,6.14
2018-09-29T21:16:03.189Z,6.08
2018-09-29T21:18:31.739Z,6.04
2018-09-29T21:21:00.297Z,5.96
2018-09-29T21:23:28.519Z,5.92
2018-09-29T21:25:56.688Z,5.97
2018-09-29T21:28:24.846Z,5.97
2018-09-29T21:30:53.016Z,6.03
2018-09-29T21:33:21.196Z,6.05
2018-09-29T21:35:50.396Z,6.04
2018-09-29T21:38:18.888Z,6.01
2018-09-29T21:40:47.057Z,5.96
2018-09-29T21:43:15.284Z,5.93
2018-09-29T21:45:43.500Z,5.91
2018-09-29T21:48:11.716Z,5.97
2018-09-29T21:50:40.009Z,5.89
2018-09-29T21:53:08.474Z,5.84
2018-09-29T21:55:36.637Z,5.86
2018-09-29T21:58:04.821Z,5.79
2018-09-29T22:00:38.371Z,5.78
2018-09-29T22:03:06.849Z,5.69
2018-09-29T22:05:36.043Z,5.74
2018-09-29T22:08:05.451Z,5.70
2018-09-29T22:10:34.699Z,5.70
2018-09-29T22:13:04.170Z,5.67
2018-09-29T22:15:33.215Z,5.63
2018-09-29T22:18:02.393Z,5.65
2018-09-29T22:20:31.485Z,5.65
2018-09-29T22:23:00.760Z,5.66
2018-09-29T22:25:30.910Z,5.60
2018-09-29T22:27:59.069Z,5.57
2018-09-29T22:30:27.246Z,5.54
2018-09-29T22:32:55.663Z,5.53
2018-09-29T22:35:23.950Z,5.50
2018-09-29T22:37:52.287Z,5.42
2018-09-29T22:40:20.474Z,5.39
2018-09-29T22:42:48.731Z,5.33
2018-09-29T22:45:16.904Z,5.31
2018-09-29T22:47:45.068Z,5.23
2018-09-29T22:50:13.228Z,5.26
2018-09-29T22:52:41.415Z,5.29
2018-09-29T22:55:09.594Z,5.28
2018-09-29T22:57:38.096Z,5.25
2018-09-29T23:00:06.200Z,5.16
2018-09-29T23:02:34.357Z,5.17
2018-09-29T23:05:02.588Z,5.13
2018-09-29T23:07:30.747Z,5.08
2018-09-29T23:09:58.927Z,5.04
2018-09-29T23:12:27.114Z,4.99
2018-09-29T23:14:55.323Z,4.95
2018-09-29T23:17:23.489Z,4.92
2018-09-29T23:19:51.665Z,4.87
2018-09-29T23:22:19.849Z,4.83
2018-09-29T23:24:48.074Z,4.92
2018-09-29T23:27:16.229Z,4.87
2018-09-29T23:29:45.129Z,4.80
2018-09-29T23:32:13.316Z,4.77
2018-09-29T23:34:41.466Z,4.74
2018-09-29T23:37:09.672Z,4.68
2018-09-29T23:39:37.837Z,4.67
2018-09-29T23:42:05.989Z,4.65
2018-09-29T23:44:34.313Z,4.63
2018-09-29T23:47:02.604Z,4.60
2018-09-29T23:49:30.881Z,4.59
2018-09-29T23:51:59.054Z,4.54
2018-09-29T23:54:27.221Z,4.55
2018-09-29T23:56:55.534Z,4.57
2018-09-29T23:59:23.976Z,4.56
